Praha, Texas
Current Conditions -  °F | °C
As of 2:35 PM on Friday 28 Nov 2014 (Local Time) from K3T5 Reporting Station
Clear Clear  
Wind Chill: 74°   Ceiling: Unl
Heat Index: 74°   Visibility: 10mi
Dew Point: 54°   Wind: 13mph
Humidity: 49%   Direction: 210°SSW
Pressure: 30.15"   Gusts: 18mph
Location:  29.7626°N, 97.1228°W
Report Text: K3T5 282035Z AUTO 21011G16KT 10SM CLR 24/12 A3015 RMK AO2 T02350121
Loading
Personal Weather Stations






























Interactive Weather Map New forecast layout! Learn more

10-Day Weather Forecast

Advertisements
Track Severe Weather on mobile